RJSARJSK

Guest
Details From RJSA - AOMORI
To RJSK - AKITA
Flight Number -
Tags generated
Created
Modified
Stats Distance 71 nm / 132 km
Max Altitude 5,200 ft / 1,585 m
Waypoints 3
Social Downloads 0
Likes 0
Share VATSIM

Download

Looking for another format? Having issues loading an existing format? Contact us
Advertisement - Login to hide

Notes

Basic altitude profile: - Ascent Rate: 2500ft/min - Ascent Speed: 250kts - Cruise Altitude: 35000ft - Cruise Speed: 420kts - Descent Rate: 1500ft/min - Descent Speed: 250kts

Route

RJSA YACHI RJSK

ID Type Via Altitude Latitude Longitude Leg Dist Tot Dist Heading (true) Name
O RJSA APT - 0 ft / 0 m 40.73327˚ 140.68859˚ - 0 nm - AOMORI
YACHI FIX - 5,200 ft / 1,585 m 40.49040˚ 140.66805˚ 14 nm 14 nm 184° / 184° -
O RJSK APT - 0 ft / 0 m 39.61564˚ 140.21867˚ 56 nm 71 nm 202° / 201° AKITA

Altitude Profile

Advertisement - Login to hide

RJSA

Details ICAO RJSA (AOJ)
Name AOMORI
Region Japan
Timezone Asia/Tokyo (UTC+9.0)
Stats Elevation 664 ft / 202 m (AMSL)
Location 40.733272° 140.688594°
Runways 1
Magnetic Variation 8.939° W

METAR

RJSA 151200Z 18006KT 9999 FEW015 BKN/// 00/M04 Q1016

Decode

TAF

TAF RJSA 151105Z 1512/1618 20010KT 9999 FEW020 BKN040 TEMPO 1518/1521 20020G30KT TEMPO 1521/1600 1500 -SHSNRA BR FEW005 BKN008 BKN015 BECMG 1522/1600 26010KT TEMPO 1603/1612 0700 SHSN FEW002 BKN005 BKN008 TEMPO 1612/1618 0500 SHSN VV003

Decode

Departure Runways

ID Width Length Bearing (true) Bearing (mag) Surface Threshold Offset Overrun Length
06 200 ft / 61 m 9,838 ft / 2,999 m 51.79° 60.73° Asphalt 0 ft / 0 m 200 ft / 61 m
24 200 ft / 61 m 9,838 ft / 2,999 m 231.81° 240.75° Asphalt 0 ft / 0 m 200 ft / 61 m

RJSK

Details ICAO RJSK (AXT)
Name AKITA
Region Japan
Timezone Asia/Tokyo (UTC+9.0)
Stats Elevation 313 ft / 95 m (AMSL)
Location 39.615645° 140.218665°
Runways 1
Magnetic Variation 8.666° W

METAR

RJSK 151206Z VRB02KT 4500 R28/P1800N PRFG BR FEW001 SCT002 BKN035 00/M00 Q1018 RMK 2ST001 3ST002 5CU035 A3007 1500NE-SE

Decode

TAF

TAF RJSK 151105Z 1512/1618 14004KT 8000 FEW020 BKN040 TEMPO 1512/1521 1500 BR FEW001 BKN003 TEMPO 1521/1600 3000 SHRA BR FEW005 BKN008 BKN015 BECMG 1522/1600 30008KT TEMPO 1600/1612 3000 -SHSN TEMPO 1612/1618 1500 -SHSN FEW005 BKN008 BKN015

Decode

Destination Runways

ID Width Length Bearing (true) Bearing (mag) Surface Threshold Offset Overrun Length
10 200 ft / 61 m 8,184 ft / 2,495 m 96.62° 105.29° Asphalt 0 ft / 0 m 200 ft / 61 m
28 200 ft / 61 m 8,184 ft / 2,495 m 276.64° 285.31° Asphalt 0 ft / 0 m 200 ft / 61 m

Approach Navaids

Runway Type Ident Frequency Range Bearing (true) Bearing (mag) Slope Elevation
28 Localiser IUW 108.90 MHz 18 nm / 33 km 276.62° 285.28° - 286 ft / 87 m (AMSL)
28 Glidescope IUW 108.90 MHz 10 nm / 19 km 276.63° 285.29° 3.00° 300 ft / 91 m (AMSL)
28 DME IUW 108.90 MHz 18 nm / 33 km - - - 328 ft / 100 m (AMSL)

Popular Alternatives